Kota Bharu, Malaysia
Current Conditions -  °F | °C
As of 5:00 PM on Saturday 20 Dec 2014 (Local Time) from WMKC Reporting Station
Light Rain Light Rain  
Wind Chill: 77°   Ceiling: 19000
Heat Index: 78°   Visibility: 2.1mi
Dew Point: 75°   Wind: 5mph
Humidity: 94%   Direction: 100°E
Pressure: 29.8"   Gusts: NA
Location:  6.17°N, 102.28°E
Report Text: WMKC 200900Z 10004KT 070V150 3500 -RA FEW008 SCT020 OVC190 25/24 Q1009
Loading
Personal Weather Stations






























Interactive Weather Map New forecast layout! Learn more

10-Day Weather Forecast

Advertisements
Track Severe Weather on mobile